Bookmark and Share
Track history (hours):
 

"stadt Gera"

Last reported at 2014-Apr-12 04:33 UTC. Time now 2014-Apr-24 22:34 UTC.
Position N 25°34' W 079°36'.
Warning: this ship's position is 12 days out of date.

Length 166 m; draft 9 m.

Type: Ship (hazmat cat A). MMSI: 210235000.

NotesDate/timePositionNaut miles runAvg speedWind from/ knotsBaromVisibWave heightAir tempDewpointWater temp
2014-Apr-12 04:33N 25°34' W 079°36'1616.0
2014-Apr-12 03:33N 25°49' W 079°33'1616.1
2014-Apr-12 02:33N 26°05' W 079°32'1615.7
2014-Apr-12 01:33N 26°21' W 079°28'  
2014-Apr-08 14:29N 34°14' W 076°25'15813.2
2014-Apr-08 02:33N 36°48' W 075°45'10 9.8
2014-Apr-08 01:33N 36°54' W 075°55'1211.9
2014-Apr-08 00:33N 36°59' W 076°08'1110.6
2014-Apr-07 23:33N 36°54' W 076°20'2 1.6
2014-Apr-07 22:32N 36°53' W 076°21'0 0.0
2014-Apr-07 21:33N 36°53' W 076°21'0 0.0
2014-Apr-07 20:31N 36°53' W 076°21'0 0.0
2014-Apr-07 19:31N 36°53' W 076°21'0 0.0
2014-Apr-07 17:30N 36°53' W 076°21'0 0.0
2014-Apr-07 16:33N 36°53' W 076°21'0 0.0
2014-Apr-07 15:33N 36°52' W 076°21'0 0.0
2014-Apr-07 14:33N 36°53' W 076°21'0 0.0
2014-Apr-07 13:28N 36°53' W 076°21'0 0.0
2014-Apr-07 12:33N 36°53' W 076°21'0 0.0
2014-Apr-07 11:32N 36°53' W 076°21'0 0.0
2014-Apr-07 10:33N 36°53' W 076°21'0 0.0
2014-Apr-07 09:31N 36°52' W 076°21'0 0.1
2014-Apr-07 08:33N 36°53' W 076°21'6 5.5
2014-Apr-07 07:33N 36°58' W 076°20'1111.5
2014-Apr-07 06:33N 36°58' W 076°06'1111.1
2014-Apr-07 05:32N 36°54' W 075°53'10 9.9
2014-Apr-07 04:33N 36°48' W 075°43'1212.4
2014-Apr-07 03:33N 36°38' W 075°35'2015.0
2014-Apr-07 02:13N 36°19' W 075°25'11312.9
2014-Apr-06 17:26N 34°30' W 076°03'  
2014-Apr-03 18:22N 26°44' W 079°28'1316.2
2014-Apr-03 17:33N 26°30' W 079°28'1616.3
2014-Apr-03 16:33N 26°14' W 079°29'1918.6
2014-Apr-03 15:33N 25°56' W 079°32'1919.1
2014-Apr-03 14:32N 25°37' W 079°35'4019.2
2014-Apr-03 12:27N 24°57' W 079°41'1816.6
2014-Apr-03 11:22N 24°40' W 079°50'1519.0
2014-Apr-03 10:33N 24°32' W 080°04'16617.5
2014-Apr-03 01:07N 23°20' W 082°47'1316.1
2014-Apr-03 00:20N 23°16' W 083°00'1517.1
2014-Apr-02 23:28N 23°10' W 083°15'  

Dump ship's entire track history

sailing weather and tide predictions

"stadt Gera" — C4XY2 — position and weather